National Weather Service Raw Text Product

Displaying AFOS PIL: TAFDSM Received: 2018-01-03 11:39 UTC


179 
FTUS43 KDMX 031139
TAFDSM
TAF
KDSM 031139Z 0312/0412 33014G22KT P6SM FEW020
     FM032300 32009G13KT P6SM FEW250
     FM040500 33006KT P6SM FEW250=